createdAt,value
2018-09-26T00:00:11.766Z,99.99
2018-09-26T00:01:11.916Z,99.99
2018-09-26T00:02:12.122Z,99.99
2018-09-26T00:03:12.206Z,99.99
2018-09-26T00:04:12.351Z,99.99
2018-09-26T00:05:12.496Z,99.99
2018-09-26T00:06:12.640Z,99.99
2018-09-26T00:07:12.787Z,99.99
2018-09-26T00:08:12.936Z,99.99
2018-09-26T00:09:13.084Z,99.99
2018-09-26T00:10:13.230Z,99.99
2018-09-26T00:11:13.375Z,99.99
2018-09-26T00:12:13.521Z,99.99
2018-09-26T00:13:13.666Z,99.99
2018-09-26T00:14:13.816Z,99.99
2018-09-26T00:15:13.962Z,99.99
2018-09-26T00:16:14.105Z,99.99
2018-09-26T00:17:14.256Z,99.99
2018-09-26T00:18:14.396Z,99.99
2018-09-26T00:19:14.542Z,99.99
2018-09-26T00:20:14.686Z,99.99
2018-09-26T00:21:14.831Z,99.99
2018-09-26T00:22:14.976Z,99.99
2018-09-26T00:23:15.124Z,99.99
2018-09-26T00:24:15.271Z,99.99
2018-09-26T00:25:15.415Z,99.99
2018-09-26T00:26:15.560Z,99.99
2018-09-26T00:27:15.706Z,99.99
2018-09-26T00:28:15.854Z,99.99
2018-09-26T00:29:16.001Z,99.99
2018-09-26T00:30:16.149Z,99.99
2018-09-26T00:31:16.292Z,99.99
2018-09-26T00:32:16.439Z,99.99
2018-09-26T00:33:16.588Z,99.99
2018-09-26T00:34:16.730Z,99.99
2018-09-26T00:35:16.877Z,99.99
2018-09-26T00:36:17.101Z,99.99
2018-09-26T00:37:17.167Z,99.99
2018-09-26T00:38:17.316Z,99.99
2018-09-26T00:39:17.470Z,99.99
2018-09-26T00:40:17.629Z,99.99
2018-09-26T00:41:17.754Z,99.99
2018-09-26T00:42:17.902Z,99.99
2018-09-26T00:43:18.046Z,99.99
2018-09-26T00:44:18.191Z,99.99
2018-09-26T00:45:18.338Z,99.99
2018-09-26T00:46:18.484Z,99.99
2018-09-26T00:47:18.629Z,99.99
2018-09-26T00:48:18.775Z,99.99
2018-09-26T00:49:18.921Z,99.99
2018-09-26T00:50:19.068Z,99.99
2018-09-26T00:51:19.216Z,99.99
2018-09-26T00:52:19.362Z,99.99
2018-09-26T00:53:19.515Z,99.99
2018-09-26T00:54:19.647Z,99.99
2018-09-26T00:55:19.827Z,99.99
2018-09-26T00:56:19.970Z,99.99
2018-09-26T00:57:20.123Z,99.99
2018-09-26T00:58:20.264Z,99.99
2018-09-26T00:59:20.407Z,99.99
2018-09-26T01:00:20.553Z,99.99
2018-09-26T01:01:20.699Z,99.99
2018-09-26T01:02:20.845Z,99.99
2018-09-26T01:03:20.994Z,99.99
2018-09-26T01:04:21.143Z,99.99
2018-09-26T01:05:21.283Z,99.99
2018-09-26T01:06:21.430Z,99.99
2018-09-26T01:07:21.573Z,99.99
2018-09-26T01:08:21.721Z,99.99
2018-09-26T01:09:21.868Z,99.99
2018-09-26T01:10:22.018Z,99.99
2018-09-26T01:11:22.159Z,99.99
2018-09-26T01:12:22.308Z,99.99
2018-09-26T01:13:22.452Z,99.99
2018-09-26T01:14:22.599Z,99.99
2018-09-26T01:15:22.744Z,99.99
2018-09-26T01:16:22.890Z,99.99
2018-09-26T01:17:23.039Z,99.99
2018-09-26T01:18:23.186Z,99.99
2018-09-26T01:19:23.335Z,99.99
2018-09-26T01:20:23.482Z,99.99
2018-09-26T01:21:23.622Z,99.99
2018-09-26T01:22:23.766Z,99.99
2018-09-26T01:23:23.912Z,99.99
2018-09-26T01:24:24.056Z,99.99
2018-09-26T01:25:24.203Z,99.99
2018-09-26T01:26:24.348Z,99.99
2018-09-26T01:27:24.493Z,99.99
2018-09-26T01:28:24.641Z,99.99
2018-09-26T01:29:24.787Z,99.99
2018-09-26T01:30:24.933Z,99.99
2018-09-26T01:31:25.081Z,99.99
2018-09-26T01:32:25.223Z,99.99
2018-09-26T01:33:25.371Z,99.99
2018-09-26T01:34:25.516Z,99.99
2018-09-26T01:35:25.662Z,99.99
2018-09-26T01:36:25.811Z,99.99
2018-09-26T01:37:25.956Z,99.99
2018-09-26T01:38:26.105Z,99.99
2018-09-26T01:39:26.248Z,99.99
2018-09-26T01:40:26.393Z,99.99
2018-09-26T01:41:26.602Z,99.99
2018-09-26T01:42:26.685Z,99.99
2018-09-26T01:43:26.828Z,99.99
2018-09-26T01:44:26.977Z,99.99
2018-09-26T01:45:27.125Z,99.99
2018-09-26T01:46:27.272Z,99.99
2018-09-26T01:47:27.423Z,99.99
2018-09-26T01:48:27.563Z,99.99
2018-09-26T01:49:27.709Z,99.99
2018-09-26T01:50:27.843Z,99.99
2018-09-26T01:51:27.985Z,99.99
2018-09-26T01:52:28.133Z,99.99
2018-09-26T01:53:28.283Z,99.99
2018-09-26T01:54:28.424Z,99.99
2018-09-26T01:55:28.571Z,99.99
2018-09-26T01:56:28.720Z,99.99
2018-09-26T01:57:28.863Z,99.99
2018-09-26T01:58:29.011Z,99.99
2018-09-26T01:59:29.156Z,99.99
2018-09-26T02:00:29.300Z,99.99
2018-09-26T02:01:29.446Z,99.99
2018-09-26T02:02:29.595Z,99.99
2018-09-26T02:03:29.739Z,99.99
2018-09-26T02:04:29.884Z,99.99
2018-09-26T02:05:30.032Z,99.99
2018-09-26T02:06:30.178Z,99.99
2018-09-26T02:07:30.330Z,99.99
2018-09-26T02:08:30.468Z,99.99
2018-09-26T02:09:30.614Z,99.99
2018-09-26T02:10:30.757Z,99.99
2018-09-26T02:11:30.902Z,99.99
2018-09-26T02:12:31.051Z,99.99
2018-09-26T02:13:31.195Z,99.99
2018-09-26T02:14:31.340Z,99.99
2018-09-26T02:15:31.488Z,99.99
2018-09-26T02:16:31.637Z,99.99
2018-09-26T02:17:31.786Z,99.99
2018-09-26T02:18:31.927Z,99.99
2018-09-26T02:19:32.071Z,99.99
2018-09-26T02:20:32.219Z,99.99
2018-09-26T02:21:32.363Z,99.99
2018-09-26T02:22:32.508Z,99.99
2018-09-26T02:23:32.655Z,99.99
2018-09-26T02:24:32.800Z,99.99
2018-09-26T02:25:32.952Z,99.99
2018-09-26T02:26:33.096Z,99.99
2018-09-26T02:27:33.250Z,99.99
2018-09-26T02:28:33.395Z,99.99
2018-09-26T02:29:33.541Z,99.99
2018-09-26T02:30:33.686Z,99.99
2018-09-26T02:31:33.833Z,99.99
2018-09-26T02:32:33.978Z,99.99
2018-09-26T02:33:34.123Z,99.99
2018-09-26T02:34:34.267Z,99.99
2018-09-26T02:35:34.414Z,99.99
2018-09-26T02:36:34.561Z,99.99
2018-09-26T02:37:34.706Z,99.99
2018-09-26T02:38:34.851Z,99.99
2018-09-26T02:39:34.998Z,99.99
2018-09-26T02:40:35.142Z,99.99
2018-09-26T02:41:35.291Z,99.99
2018-09-26T02:42:35.434Z,99.99
2018-09-26T02:43:35.582Z,99.99
2018-09-26T02:44:35.721Z,99.99
2018-09-26T02:45:35.865Z,99.99
2018-09-26T02:46:36.011Z,99.99
2018-09-26T02:47:36.159Z,99.99
2018-09-26T02:48:36.302Z,99.99
2018-09-26T02:49:36.448Z,99.99
2018-09-26T02:50:36.596Z,99.99
2018-09-26T02:51:36.743Z,99.99
2018-09-26T02:52:36.889Z,99.99
2018-09-26T02:53:37.034Z,99.99
2018-09-26T02:54:37.180Z,99.99
2018-09-26T02:55:37.388Z,99.99
2018-09-26T02:56:37.474Z,99.99
2018-09-26T02:57:37.626Z,99.99
2018-09-26T02:58:37.766Z,99.99
2018-09-26T02:59:37.913Z,99.99
2018-09-26T03:00:38.058Z,99.99
2018-09-26T03:01:38.205Z,99.99
2018-09-26T03:02:38.351Z,99.99
2018-09-26T03:03:38.507Z,99.99
2018-09-26T03:04:38.645Z,99.99
2018-09-26T03:05:38.795Z,99.99
2018-09-26T03:06:38.938Z,99.99
2018-09-26T03:07:39.083Z,99.99
2018-09-26T03:08:39.226Z,99.99
2018-09-26T03:09:39.371Z,99.99
2018-09-26T03:10:39.511Z,99.99
2018-09-26T03:11:39.665Z,99.99
2018-09-26T03:12:39.828Z,99.99
2018-09-26T03:13:39.948Z,99.99
2018-09-26T03:14:40.091Z,99.99
2018-09-26T03:15:40.240Z,99.99
2018-09-26T03:16:40.384Z,99.99
2018-09-26T03:17:40.596Z,99.99
2018-09-26T03:18:40.675Z,99.99
2018-09-26T03:19:40.825Z,99.99
2018-09-26T03:20:40.968Z,99.99
2018-09-26T03:21:41.115Z,99.99
2018-09-26T03:22:41.260Z,99.99
2018-09-26T03:23:41.405Z,99.99
2018-09-26T03:24:41.549Z,99.99
2018-09-26T03:25:41.694Z,99.99
2018-09-26T03:26:41.836Z,99.99
2018-09-26T03:27:41.983Z,99.99
2018-09-26T03:28:42.131Z,99.99
2018-09-26T03:29:42.276Z,99.99
2018-09-26T03:30:42.429Z,99.99
2018-09-26T03:31:42.572Z,99.99
2018-09-26T03:32:42.718Z,99.99
2018-09-26T03:33:42.966Z,99.99
2018-09-26T03:34:43.016Z,99.99
2018-09-26T03:35:43.155Z,99.99
2018-09-26T03:36:43.302Z,99.99
2018-09-26T03:37:43.447Z,99.99
2018-09-26T03:38:43.592Z,99.99
2018-09-26T03:39:43.739Z,99.99
2018-09-26T03:40:43.885Z,99.99
2018-09-26T03:41:44.035Z,99.99
2018-09-26T03:42:44.180Z,99.99
2018-09-26T03:43:44.327Z,99.99
2018-09-26T03:44:44.472Z,99.99
2018-09-26T03:45:44.624Z,99.99
2018-09-26T03:46:44.767Z,99.99
2018-09-26T03:47:44.910Z,99.99
2018-09-26T03:48:45.055Z,99.99
2018-09-26T03:49:45.202Z,99.99
2018-09-26T03:50:45.350Z,99.99
2018-09-26T03:51:45.493Z,99.99
2018-09-26T03:52:45.639Z,99.99
2018-09-26T03:53:45.787Z,99.99
2018-09-26T03:54:45.931Z,99.99
2018-09-26T03:55:46.081Z,99.99
2018-09-26T03:56:46.226Z,99.99
2018-09-26T03:57:46.370Z,99.99
2018-09-26T03:58:46.521Z,99.99
2018-09-26T03:59:46.665Z,99.99
2018-09-26T04:00:46.810Z,99.99
2018-09-26T04:01:46.961Z,99.99
2018-09-26T04:02:47.103Z,99.99
2018-09-26T04:03:47.249Z,99.99
2018-09-26T04:04:47.432Z,99.99
2018-09-26T04:05:47.541Z,99.99
2018-09-26T04:06:47.688Z,99.99
2018-09-26T04:07:47.833Z,99.99
2018-09-26T04:08:47.978Z,99.99
2018-09-26T04:09:48.125Z,99.99
2018-09-26T04:10:48.271Z,99.99
2018-09-26T04:11:48.415Z,99.99
2018-09-26T04:12:48.606Z,99.99
2018-09-26T04:13:48.707Z,99.99
2018-09-26T04:14:48.853Z,99.99
2018-09-26T04:15:49.057Z,99.99
2018-09-26T04:16:49.153Z,99.99
2018-09-26T04:17:49.292Z,99.99
2018-09-26T04:18:49.435Z,99.99
2018-09-26T04:19:49.590Z,99.99
2018-09-26T04:20:49.736Z,99.99
2018-09-26T04:21:49.886Z,99.99
2018-09-26T04:22:50.016Z,99.99
2018-09-26T04:23:50.160Z,99.99
2018-09-26T04:24:50.303Z,99.99
2018-09-26T04:25:50.455Z,99.99
2018-09-26T04:26:50.885Z,99.99
2018-09-26T04:27:50.848Z,99.99
2018-09-26T04:28:50.888Z,99.99
2018-09-26T04:29:51.034Z,99.99
2018-09-26T04:30:51.177Z,99.99
2018-09-26T04:31:51.323Z,99.99
2018-09-26T04:32:51.598Z,99.99
2018-09-26T04:33:51.701Z,99.99
2018-09-26T04:34:51.764Z,99.99
2018-09-26T04:35:51.909Z,99.99
2018-09-26T04:36:52.056Z,99.99
2018-09-26T04:37:52.207Z,99.99
2018-09-26T04:38:52.437Z,99.99
2018-09-26T04:39:52.494Z,99.99
2018-09-26T04:40:52.640Z,99.99
2018-09-26T04:41:52.787Z,99.99
2018-09-26T04:42:52.935Z,99.99
2018-09-26T04:43:53.079Z,99.99
2018-09-26T04:44:53.224Z,99.99
2018-09-26T04:45:53.373Z,99.99
2018-09-26T04:46:53.521Z,99.99
2018-09-26T04:47:53.668Z,99.99
2018-09-26T04:48:53.819Z,99.99
2018-09-26T04:49:53.963Z,99.99
2018-09-26T04:50:54.153Z,99.99
2018-09-26T04:51:54.253Z,99.99
2018-09-26T04:52:54.401Z,99.99
2018-09-26T04:53:54.546Z,99.99
2018-09-26T04:54:54.692Z,99.99
2018-09-26T04:55:54.835Z,99.99
2018-09-26T04:56:54.978Z,99.99
2018-09-26T04:57:55.206Z,99.99
2018-09-26T04:58:55.269Z,99.99
2018-09-26T04:59:55.416Z,99.99
2018-09-26T05:00:55.563Z,99.99
2018-09-26T05:01:55.708Z,99.99
2018-09-26T05:02:55.855Z,99.99
2018-09-26T05:03:56.002Z,99.99
2018-09-26T05:04:56.147Z,99.99
2018-09-26T05:05:56.293Z,99.99
2018-09-26T05:06:56.437Z,99.99
2018-09-26T05:07:56.581Z,99.99
2018-09-26T05:08:56.762Z,99.99
2018-09-26T05:09:56.878Z,99.99
2018-09-26T05:10:57.023Z,99.99
2018-09-26T05:11:57.167Z,99.99
2018-09-26T05:12:57.315Z,99.99
2018-09-26T05:13:57.463Z,99.99
2018-09-26T05:14:57.611Z,99.99
2018-09-26T05:15:57.758Z,99.99
2018-09-26T05:16:57.902Z,99.99
2018-09-26T05:17:58.050Z,99.99
2018-09-26T05:18:58.191Z,99.99
2018-09-26T05:19:58.340Z,99.99
2018-09-26T05:20:58.483Z,99.99
2018-09-26T05:21:58.629Z,99.99
2018-09-26T05:22:58.797Z,99.99
2018-09-26T05:23:58.926Z,99.99
2018-09-26T05:24:59.067Z,99.99
2018-09-26T05:25:59.216Z,99.99
2018-09-26T05:26:59.358Z,99.99
2018-09-26T05:27:59.506Z,99.99
2018-09-26T05:28:59.654Z,99.99
2018-09-26T05:29:59.799Z,99.99
2018-09-26T05:30:59.945Z,99.99
2018-09-26T05:32:00.095Z,99.99
2018-09-26T05:33:00.236Z,99.99
2018-09-26T05:34:00.384Z,99.99
2018-09-26T05:35:00.530Z,99.99
2018-09-26T05:36:00.677Z,99.99
2018-09-26T05:37:00.822Z,99.99
2018-09-26T05:38:00.967Z,99.99
2018-09-26T05:39:01.115Z,99.99
2018-09-26T05:40:01.259Z,99.99
2018-09-26T05:41:01.409Z,99.99
2018-09-26T05:42:01.555Z,99.99
2018-09-26T05:43:01.697Z,99.99
2018-09-26T05:44:01.845Z,99.99
2018-09-26T05:45:01.996Z,99.99
2018-09-26T05:46:02.139Z,99.99
2018-09-26T05:47:02.298Z,99.99
2018-09-26T05:48:02.431Z,99.99
2018-09-26T05:49:02.576Z,99.99
2018-09-26T05:50:02.726Z,99.99
2018-09-26T05:51:02.870Z,99.99
2018-09-26T05:52:03.019Z,99.99
2018-09-26T05:53:03.165Z,99.99
2018-09-26T05:54:03.307Z,99.99
2018-09-26T05:55:03.451Z,99.99
2018-09-26T05:56:03.603Z,99.99
2018-09-26T05:57:03.747Z,99.99
2018-09-26T05:58:03.893Z,99.99
2018-09-26T05:59:04.044Z,99.99
2018-09-26T06:00:04.187Z,99.99
2018-09-26T06:01:04.335Z,99.99
2018-09-26T06:02:04.481Z,99.99
2018-09-26T06:03:04.629Z,99.99
2018-09-26T06:04:04.771Z,99.99
2018-09-26T06:05:04.915Z,99.99
2018-09-26T06:06:05.063Z,99.99
2018-09-26T06:07:05.209Z,99.99
2018-09-26T06:08:05.354Z,99.99
2018-09-26T06:09:05.499Z,99.99
2018-09-26T06:10:05.647Z,99.99
2018-09-26T06:11:05.793Z,99.99
2018-09-26T06:12:05.944Z,99.99
2018-09-26T06:13:06.152Z,99.99
2018-09-26T06:14:06.235Z,99.99
2018-09-26T06:15:06.382Z,99.99
2018-09-26T06:16:06.530Z,99.99
2018-09-26T06:17:06.675Z,99.99
2018-09-26T06:18:06.822Z,99.99
2018-09-26T06:19:07.086Z,99.99
2018-09-26T06:20:07.119Z,99.99
2018-09-26T06:21:07.269Z,99.99
2018-09-26T06:22:07.415Z,99.99
2018-09-26T06:23:07.560Z,99.99
2018-09-26T06:24:07.707Z,99.99
2018-09-26T06:25:07.851Z,99.99
2018-09-26T06:26:07.999Z,99.99
2018-09-26T06:27:08.145Z,99.99
2018-09-26T06:28:08.292Z,99.99
2018-09-26T06:29:08.439Z,99.99
2018-09-26T06:30:08.584Z,99.99
2018-09-26T06:31:08.732Z,99.99
2018-09-26T06:32:08.881Z,99.99
2018-09-26T06:33:09.027Z,99.99
2018-09-26T06:34:09.176Z,99.99
2018-09-26T06:35:09.324Z,99.99
2018-09-26T06:36:09.467Z,99.99
2018-09-26T06:37:09.615Z,99.99
2018-09-26T06:38:09.765Z,99.99
2018-09-26T06:39:09.911Z,99.99
2018-09-26T06:40:10.064Z,99.99
2018-09-26T06:41:10.209Z,99.99
2018-09-26T06:42:10.359Z,99.99
2018-09-26T06:43:10.504Z,99.99
2018-09-26T06:44:10.653Z,99.99
2018-09-26T06:45:10.801Z,99.99
2018-09-26T06:46:10.948Z,99.99
2018-09-26T06:47:11.097Z,99.99
2018-09-26T06:48:11.248Z,99.99
2018-09-26T06:49:11.390Z,99.99
2018-09-26T06:50:11.543Z,99.99
2018-09-26T06:51:11.693Z,99.99
2018-09-26T06:52:11.837Z,99.99
2018-09-26T06:53:11.985Z,99.99
2018-09-26T06:54:12.131Z,99.99
2018-09-26T06:55:12.279Z,99.99
2018-09-26T06:56:12.426Z,99.99
2018-09-26T06:57:12.574Z,99.99
2018-09-26T06:58:12.722Z,99.99
2018-09-26T06:59:12.871Z,99.99
2018-09-26T07:00:13.049Z,99.99
2018-09-26T07:01:13.166Z,99.99
2018-09-26T07:02:13.312Z,99.99
2018-09-26T07:03:13.459Z,99.99
2018-09-26T07:04:13.608Z,99.99
2018-09-26T07:05:13.754Z,99.99
2018-09-26T07:06:13.902Z,99.99
2018-09-26T07:07:14.052Z,99.99
2018-09-26T07:08:14.198Z,99.99
2018-09-26T07:09:14.349Z,99.99
2018-09-26T07:10:14.497Z,99.99
2018-09-26T07:11:14.644Z,99.99
2018-09-26T07:12:14.855Z,99.99
2018-09-26T07:13:14.941Z,99.99
2018-09-26T07:14:15.089Z,99.99
2018-09-26T07:15:15.236Z,99.99
2018-09-26T07:16:15.386Z,99.99
2018-09-26T07:17:15.535Z,99.99
2018-09-26T07:18:15.681Z,99.99
2018-09-26T07:19:15.829Z,99.99
2018-09-26T07:20:15.978Z,99.99
2018-09-26T07:21:16.126Z,99.99
2018-09-26T07:22:16.274Z,99.99
2018-09-26T07:23:16.428Z,99.99
2018-09-26T07:24:16.569Z,99.99
2018-09-26T07:25:16.717Z,99.99
2018-09-26T07:26:16.861Z,99.99
2018-09-26T07:27:17.009Z,99.99
2018-09-26T07:28:17.157Z,99.99
2018-09-26T07:29:17.312Z,99.99
2018-09-26T07:30:17.456Z,99.99
2018-09-26T07:31:17.667Z,99.99
2018-09-26T07:32:17.773Z,99.99
2018-09-26T07:33:17.903Z,99.99
2018-09-26T07:34:18.049Z,99.99
2018-09-26T07:35:18.196Z,99.99
2018-09-26T07:36:18.346Z,99.99
2018-09-26T07:37:18.493Z,99.99
2018-09-26T07:38:18.650Z,99.99
2018-09-26T07:39:18.791Z,99.99
2018-09-26T07:40:18.941Z,99.99
2018-09-26T07:41:19.088Z,99.99
2018-09-26T07:42:19.239Z,99.99
2018-09-26T07:43:19.385Z,99.99
2018-09-26T07:44:19.532Z,99.99
2018-09-26T07:45:19.695Z,99.99
2018-09-26T07:46:19.835Z,99.99
2018-09-26T07:47:19.980Z,99.99
2018-09-26T07:48:20.130Z,99.99
2018-09-26T07:49:20.283Z,99.99
2018-09-26T07:50:20.427Z,99.99
2018-09-26T07:51:20.579Z,99.99
2018-09-26T07:52:20.723Z,99.99
2018-09-26T07:53:20.875Z,99.99
2018-09-26T07:54:21.025Z,99.99
2018-09-26T07:55:21.173Z,99.99
2018-09-26T07:56:21.323Z,99.99
2018-09-26T07:57:21.471Z,99.99
2018-09-26T07:58:21.620Z,99.99
2018-09-26T07:59:21.770Z,99.99
2018-09-26T08:00:21.918Z,99.99
2018-09-26T08:01:22.066Z,99.99
2018-09-26T08:02:22.217Z,99.99
2018-09-26T08:03:22.366Z,99.99
2018-09-26T08:04:22.519Z,99.99
2018-09-26T08:05:22.661Z,99.99
2018-09-26T08:06:22.808Z,99.99
2018-09-26T08:07:22.958Z,99.99
2018-09-26T08:08:23.107Z,99.99
2018-09-26T08:09:23.256Z,99.88
2018-09-26T08:10:23.414Z,99.99
2018-09-26T08:11:23.650Z,99.16
2018-09-26T08:12:23.708Z,98.31
2018-09-26T08:13:23.859Z,99.45
2018-09-26T08:14:24.006Z,99.99
2018-09-26T08:15:24.154Z,99.12
2018-09-26T08:16:24.303Z,99.50
2018-09-26T08:17:24.452Z,99.31
2018-09-26T08:18:24.648Z,99.31
2018-09-26T08:19:24.752Z,99.17
2018-09-26T08:20:24.899Z,97.88
2018-09-26T08:21:25.048Z,99.08
2018-09-26T08:22:25.198Z,98.98
2018-09-26T08:23:25.345Z,97.93
2018-09-26T08:24:25.497Z,98.98
2018-09-26T08:25:25.646Z,96.84
2018-09-26T08:26:25.796Z,95.17
2018-09-26T08:27:25.946Z,95.60
2018-09-26T08:28:26.100Z,95.79
2018-09-26T08:29:26.248Z,95.70
2018-09-26T08:30:26.402Z,95.79
2018-09-26T08:31:26.553Z,95.56
2018-09-26T08:32:26.702Z,95.65
2018-09-26T08:33:26.855Z,94.74
2018-09-26T08:34:27.010Z,94.03
2018-09-26T08:35:27.154Z,92.69
2018-09-26T08:36:27.303Z,93.17
2018-09-26T08:37:27.453Z,88.41
2018-09-26T08:38:27.608Z,88.31
2018-09-26T08:39:27.757Z,88.74
2018-09-26T08:40:27.908Z,89.89
2018-09-26T08:41:28.059Z,89.60
2018-09-26T08:42:28.209Z,87.98
2018-09-26T08:43:28.367Z,86.93
2018-09-26T08:44:28.510Z,87.98
2018-09-26T08:45:28.661Z,86.83
2018-09-26T08:46:28.808Z,87.02
2018-09-26T08:47:28.962Z,87.12
2018-09-26T08:48:29.114Z,87.16
2018-09-26T08:49:29.262Z,88.40
2018-09-26T08:50:29.411Z,87.16
2018-09-26T08:51:29.564Z,82.87
2018-09-26T08:52:29.714Z,83.06
2018-09-26T08:53:29.867Z,81.63
2018-09-26T08:54:30.018Z,78.10
2018-09-26T08:55:30.168Z,77.62
2018-09-26T08:56:30.319Z,78.30
2018-09-26T08:57:30.473Z,76.96
2018-09-26T08:58:30.623Z,75.05
2018-09-26T08:59:30.817Z,72.96
2018-09-26T09:00:30.934Z,71.33
2018-09-26T09:01:31.079Z,71.33
2018-09-26T09:02:31.229Z,71.18
2018-09-26T09:03:31.378Z,70.61
2018-09-26T09:04:31.530Z,70.89
2018-09-26T09:05:31.681Z,70.51
2018-09-26T09:06:31.831Z,71.66
2018-09-26T09:07:31.980Z,72.71
2018-09-26T09:08:32.131Z,70.98
2018-09-26T09:09:32.283Z,70.67
2018-09-26T09:10:32.431Z,69.74
2018-09-26T09:11:32.588Z,70.61
2018-09-26T09:12:32.735Z,70.42
2018-09-26T09:13:32.887Z,72.03
2018-09-26T09:14:33.136Z,71.27
2018-09-26T09:15:33.186Z,70.26
2018-09-26T09:16:33.335Z,69.27
2018-09-26T09:17:33.479Z,69.56
2018-09-26T09:18:33.641Z,69.84
2018-09-26T09:19:33.794Z,70.83
2018-09-26T09:20:33.943Z,70.16
2018-09-26T09:21:34.093Z,70.26
2018-09-26T09:22:34.242Z,69.78
2018-09-26T09:23:34.397Z,68.73
2018-09-26T09:24:34.549Z,68.06
2018-09-26T09:25:34.698Z,67.87
2018-09-26T09:26:34.850Z,69.31
2018-09-26T09:27:35.011Z,68.92
2018-09-26T09:28:35.155Z,69.02
2018-09-26T09:29:35.306Z,68.48
2018-09-26T09:30:35.457Z,68.82
2018-09-26T09:31:35.608Z,68.35
2018-09-26T09:32:35.765Z,68.19
2018-09-26T09:33:35.911Z,67.81
2018-09-26T09:34:36.061Z,67.24
2018-09-26T09:35:36.210Z,67.91
2018-09-26T09:36:36.382Z,67.71
2018-09-26T09:37:36.512Z,67.62
2018-09-26T09:38:36.664Z,67.62
2018-09-26T09:39:36.814Z,67.71
2018-09-26T09:40:36.971Z,68.00
2018-09-26T09:41:37.103Z,68.57
2018-09-26T15:34:00.929Z,27.71
2018-09-26T15:35:01.087Z,28.00
2018-09-26T15:36:01.238Z,28.38
2018-09-26T15:37:01.396Z,29.04
2018-09-26T15:38:01.550Z,29.41
2018-09-26T15:39:01.708Z,29.70
2018-09-26T15:40:01.908Z,29.70
2018-09-26T15:41:02.015Z,29.69
2018-09-26T15:42:02.173Z,29.79
2018-09-26T15:43:02.327Z,30.17
2018-09-26T15:44:02.486Z,30.65
2018-09-26T15:45:02.641Z,30.84
2018-09-26T15:46:02.790Z,30.26
2018-09-26T15:47:02.944Z,30.74
2018-09-26T15:48:03.136Z,31.30
2018-09-26T15:49:03.252Z,31.32
2018-09-26T15:50:03.417Z,31.59
2018-09-26T15:51:03.596Z,31.40
2018-09-26T15:52:03.754Z,31.69
2018-09-26T15:53:03.913Z,31.70
2018-09-26T15:54:04.094Z,31.70
2018-09-26T15:55:04.296Z,31.59
2018-09-26T15:56:04.453Z,31.90
2018-09-26T15:57:04.610Z,31.79
2018-09-26T15:58:04.821Z,31.79
2018-09-26T15:59:04.926Z,31.30
2018-09-26T16:00:05.090Z,31.40
2018-09-26T16:01:05.233Z,31.88
2018-09-26T16:02:05.448Z,32.07
2018-09-26T16:03:05.585Z,32.75
2018-09-26T16:04:05.732Z,32.84
2018-09-26T16:05:05.855Z,32.84
2018-09-26T16:06:06.066Z,32.84
2018-09-26T16:07:06.163Z,32.73
2018-09-26T16:08:06.348Z,32.93
2018-09-26T16:09:06.470Z,33.03
2018-09-26T16:10:06.639Z,32.36
2018-09-26T16:11:06.780Z,32.75
2018-09-26T16:12:06.950Z,33.01
2018-09-26T16:13:07.087Z,33.31
2018-09-26T16:14:07.281Z,33.01
2018-09-26T16:15:07.395Z,33.11
2018-09-26T16:16:07.560Z,33.40
2018-09-26T16:17:07.699Z,33.78
2018-09-26T16:18:07.859Z,34.17
2018-09-26T16:19:08.016Z,34.45
2018-09-26T16:20:08.170Z,34.55
2018-09-26T16:21:08.320Z,34.94
2018-09-26T16:22:08.494Z,35.32
2018-09-26T16:23:08.629Z,35.22
2018-09-26T16:24:08.789Z,34.82
2018-09-26T16:25:08.935Z,34.84
2018-09-26T16:26:09.138Z,34.82
2018-09-26T16:27:09.242Z,34.92
2018-09-26T16:28:09.401Z,35.21
2018-09-26T16:29:09.553Z,34.92
2018-09-26T16:30:09.752Z,34.92
2018-09-26T16:31:09.858Z,35.11
2018-09-26T16:32:10.034Z,35.30
2018-09-26T16:33:10.164Z,35.21
2018-09-26T16:34:10.374Z,34.92
2018-09-26T16:35:10.473Z,35.11
2018-09-26T16:36:10.662Z,35.11
2018-09-26T16:37:10.787Z,35.11
2018-09-26T16:38:10.939Z,34.92
2018-09-26T16:39:11.174Z,34.63
2018-09-26T16:40:11.290Z,34.33
2018-09-26T16:41:11.409Z,35.00
2018-09-26T16:42:11.566Z,35.28
2018-09-26T16:43:11.754Z,35.28
2018-09-26T16:44:11.907Z,35.28
2018-09-26T16:45:12.066Z,35.38
2018-09-26T16:46:12.242Z,35.77
2018-09-26T16:47:12.332Z,35.19
2018-09-26T16:48:12.506Z,35.48
2018-09-26T16:49:12.649Z,36.05
2018-09-26T16:50:12.863Z,36.44
2018-09-26T16:51:12.948Z,36.34
2018-09-26T16:52:13.138Z,36.72
2018-09-26T16:53:13.252Z,36.53
2018-09-26T16:54:13.418Z,36.63
2018-09-26T16:55:13.559Z,35.84
2018-09-26T16:56:13.744Z,35.55
2018-09-26T16:57:13.863Z,35.46
2018-09-26T16:58:14.081Z,36.22
2018-09-26T16:59:14.167Z,36.90
2018-09-26T17:00:14.383Z,37.09
2018-09-26T17:01:14.479Z,37.18
2018-09-26T17:02:14.639Z,36.71
2018-09-26T17:03:14.780Z,36.90
2018-09-26T17:04:14.991Z,37.28
2018-09-26T17:05:15.090Z,37.55
2018-09-26T17:06:15.257Z,38.22
2018-09-26T17:07:15.449Z,38.22
2018-09-26T17:08:15.576Z,38.98
2018-09-26T17:09:15.697Z,39.37
2018-09-26T17:10:15.873Z,40.31
2018-09-26T17:11:16.003Z,40.59
2018-09-26T17:12:16.213Z,40.50
2018-09-26T17:13:16.307Z,40.50
2018-09-26T17:14:16.519Z,40.69
2018-09-26T17:15:16.614Z,40.31
2018-09-26T17:16:16.811Z,40.59
2018-09-26T17:17:16.919Z,41.63
2018-09-26T17:18:17.097Z,41.53
2018-09-26T17:19:17.264Z,42.49
2018-09-26T17:20:17.439Z,42.77
2018-09-26T17:21:17.532Z,43.16
2018-09-26T17:22:17.751Z,44.69
2018-09-26T17:23:17.839Z,44.50
2018-09-26T17:24:18.013Z,45.07
2018-09-26T17:25:18.165Z,44.98
2018-09-26T17:26:18.324Z,45.55
2018-09-26T17:27:18.472Z,45.74
2018-09-26T17:28:18.629Z,46.03
2018-09-26T17:29:18.787Z,46.03
2018-09-26T17:30:18.957Z,45.53
2018-09-26T17:31:19.115Z,45.72
2018-09-26T17:32:19.299Z,45.72
2018-09-26T17:33:19.417Z,45.72
2018-09-26T17:34:19.641Z,45.91
2018-09-26T17:35:19.737Z,46.10
2018-09-26T17:36:19.932Z,46.20
2018-09-26T17:37:20.031Z,46.01
2018-09-26T17:38:20.180Z,45.81
2018-09-26T17:39:20.333Z,46.39
2018-09-26T17:40:20.588Z,46.30
2018-09-26T17:41:20.636Z,46.10
2018-09-26T17:42:20.807Z,45.62
2018-09-26T17:43:20.986Z,46.01
2018-09-26T17:44:21.092Z,46.10
2018-09-26T17:45:21.299Z,45.62
2018-09-26T17:46:21.494Z,45.31
2018-09-26T17:47:21.547Z,45.79
2018-09-26T17:48:21.726Z,45.51
2018-09-26T17:49:21.876Z,45.89
2018-09-26T17:50:22.017Z,46.84
2018-09-26T17:51:22.169Z,47.99
2018-09-26T17:52:22.423Z,48.28
2018-09-26T17:53:22.517Z,48.47
2018-09-26T17:54:22.755Z,49.33
2018-09-26T17:55:22.972Z,49.71
2018-09-26T17:56:23.009Z,49.33
2018-09-26T17:57:23.160Z,49.62
2018-09-26T17:58:23.349Z,49.62
2018-09-26T17:59:23.513Z,49.71
2018-09-26T18:00:23.715Z,50.86
2018-09-26T18:01:23.842Z,50.48
2018-09-26T18:02:23.975Z,50.84
2018-09-26T18:03:24.122Z,51.21
2018-09-26T18:04:24.321Z,51.12
2018-09-26T18:05:24.426Z,51.12
2018-09-26T18:06:24.574Z,50.35
2018-09-26T18:07:24.739Z,51.03
2018-09-26T18:08:24.892Z,50.55
2018-09-26T18:09:25.042Z,49.40
2018-09-26T18:10:25.193Z,50.35
2018-09-26T18:11:25.353Z,50.64
2018-09-26T18:12:25.514Z,50.04
2018-09-26T18:13:25.695Z,50.81
2018-09-26T18:14:25.820Z,51.09
2018-09-26T18:15:25.970Z,52.24
2018-09-26T18:16:26.122Z,51.95
2018-09-26T18:17:26.342Z,52.53
2018-09-26T18:18:26.437Z,52.24
2018-09-26T18:19:26.591Z,52.43
2018-09-26T18:20:26.789Z,52.43
2018-09-26T18:21:26.896Z,51.86
2018-09-26T18:22:27.047Z,50.90
2018-09-26T18:23:27.388Z,51.29
2018-09-26T18:24:27.347Z,50.90
2018-09-26T18:25:27.513Z,50.90
2018-09-26T18:26:27.721Z,51.29
2018-09-26T18:27:27.933Z,51.09
2018-09-26T18:28:28.029Z,51.48
2018-09-26T18:29:28.182Z,51.95
2018-09-26T18:30:28.342Z,51.67
2018-09-26T18:31:28.501Z,51.76
2018-09-26T18:32:28.660Z,51.57
2018-09-26T18:33:28.866Z,52.34
2018-09-26T18:34:29.110Z,52.53
2018-09-26T18:35:29.235Z,52.24
2018-09-26T18:36:29.296Z,52.81
2018-09-26T18:37:29.508Z,54.32
2018-09-26T18:38:29.679Z,54.60
2018-09-26T18:39:30.035Z,55.55
2018-09-26T18:40:29.989Z,55.84
2018-09-26T18:41:30.142Z,57.18
2018-09-26T18:42:30.299Z,57.46
2018-09-26T18:43:30.531Z,57.65
2018-09-26T18:44:30.701Z,58.14
2018-09-26T18:45:30.854Z,58.14